KBEA

Beeville Municipal Airport

Beeville, Texas, USA
METAR KBEA 150055Z AUTO 14010G16KT 10SM CLR 30/20 A2991 RMK AO2 T02980203
Observed Flight Rules
Aug-15 @ 00:55 UTC (12 minutes ago) Visual Flight Rules
Wind Visibility Clouds
140° at 10 knots
 Gusting to 16 knots
10 miles
  • Clear skies
Temperatures Readings
Current 30°C / 86°F
Dewpoint 20°C / 68°F
Humidity 55%
Altimeter 29.91" Hg
Pressure 1013 hPa
Elevation 82
METAR KBEA 150055Z AUTO 14010G16KT 10SM CLR 30/20 A2991 RMK AO2 T02980203
Observed Flight Rules
Aug-15 @ 00:55 UTC
(12 minutes ago)
VFR
Wind Visibility
140° at 10 knots
 Gusting to 16 knots
10 miles
Clouds
  • Clear skies
Temperature Dewpoint
30°C / 86°F 20°C / 68°F
Humidity Altimeter Pressure
55% 29.91" Hg 1013 hPa